createdAt,value
2023-09-17T00:00:04.565Z,14.08
2023-09-17T00:01:04.533Z,14.11
2023-09-17T00:02:04.568Z,14.04
2023-09-17T00:03:04.600Z,14.01
2023-09-17T00:04:04.637Z,14.13
2023-09-17T00:05:04.497Z,13.96
2023-09-17T00:06:04.489Z,13.99
2023-09-17T00:07:04.488Z,14.06
2023-09-17T00:08:04.455Z,14.08
2023-09-17T00:09:04.445Z,14.05
2023-09-17T00:10:04.431Z,14.02
2023-09-17T00:11:04.442Z,14.08
2023-09-17T00:12:04.414Z,14.08
2023-09-17T00:13:04.400Z,14.08
2023-09-17T00:14:04.382Z,14.05
2023-09-17T00:15:04.414Z,14.09
2023-09-17T00:16:04.410Z,14.02
2023-09-17T00:17:04.446Z,14.08
2023-09-17T00:18:04.373Z,14.01
2023-09-17T00:19:04.337Z,14.05
2023-09-17T00:20:04.404Z,14.09
2023-09-17T00:21:04.313Z,14.05
2023-09-17T00:22:04.302Z,14.12
2023-09-17T00:23:04.325Z,14.11
2023-09-17T00:24:04.277Z,14.04
2023-09-17T00:25:04.271Z,13.99
2023-09-17T00:26:04.277Z,13.98
2023-09-17T00:27:04.251Z,13.94
2023-09-17T00:28:04.241Z,14.04
2023-09-17T00:29:04.228Z,13.98
2023-09-17T00:30:04.218Z,13.91
2023-09-17T00:31:04.278Z,14.02
2023-09-17T00:32:04.199Z,13.93
2023-09-17T00:33:04.206Z,13.99
2023-09-17T00:34:04.167Z,13.96
2023-09-17T00:35:04.165Z,14.05
2023-09-17T00:36:04.187Z,14.08
2023-09-17T00:37:04.175Z,14.06
2023-09-17T00:38:04.138Z,14.16
2023-09-17T00:39:04.108Z,14.17
2023-09-17T00:40:04.096Z,14.11
2023-09-17T00:41:04.098Z,14.16
2023-09-17T00:42:04.097Z,14.11
2023-09-17T00:43:04.074Z,14.17
2023-09-17T00:44:04.081Z,14.19
2023-09-17T00:45:04.050Z,14.08
2023-09-17T00:46:04.054Z,14.23
2023-09-17T00:47:04.111Z,14.02
2023-09-17T00:48:04.080Z,14.11
2023-09-17T00:49:04.003Z,14.17
2023-09-17T00:50:04.015Z,14.08
2023-09-17T00:51:03.985Z,13.99
2023-09-17T00:52:04.025Z,14.01
2023-09-17T00:53:03.973Z,13.99
2023-09-17T00:54:03.941Z,14.11
2023-09-17T00:55:03.931Z,14.01
2023-09-17T00:56:03.917Z,14.08
2023-09-17T00:57:03.910Z,14.01
2023-09-17T00:58:03.913Z,13.99
2023-09-17T00:59:03.888Z,14.05
2023-09-17T01:00:03.879Z,13.99
2023-09-17T01:01:03.884Z,14.01
2023-09-17T01:02:04.001Z,14.09
2023-09-17T01:03:04.063Z,14.17
2023-09-17T01:04:03.959Z,14.17
2023-09-17T01:05:03.840Z,14.16
2023-09-17T01:06:03.835Z,14.17
2023-09-17T01:07:03.810Z,14.16
2023-09-17T01:08:03.887Z,14.05
2023-09-17T01:09:03.784Z,14.08
2023-09-17T01:10:03.775Z,14.29
2023-09-17T01:11:03.779Z,14.24
2023-09-17T01:12:03.766Z,14.13
2023-09-17T01:13:03.738Z,14.16
2023-09-17T01:14:03.730Z,14.16
2023-09-17T01:15:03.736Z,14.12
2023-09-17T01:16:03.735Z,14.04
2023-09-17T01:17:03.731Z,14.12
2023-09-17T01:18:03.749Z,14.16
2023-09-17T01:19:03.687Z,14.17
2023-09-17T01:20:03.663Z,14.12
2023-09-17T01:21:03.658Z,14.17
2023-09-17T01:22:03.640Z,14.21
2023-09-17T01:23:03.653Z,14.09
2023-09-17T01:24:03.653Z,14.17
2023-09-17T01:25:03.613Z,14.17
2023-09-17T01:26:03.714Z,14.17
2023-09-17T01:27:03.586Z,14.20
2023-09-17T01:28:03.582Z,14.27
2023-09-17T01:29:03.569Z,14.27
2023-09-17T01:30:03.555Z,14.23
2023-09-17T01:31:03.548Z,14.17
2023-09-17T01:32:03.545Z,14.26
2023-09-17T01:33:03.532Z,14.29
2023-09-17T01:34:03.552Z,14.21
2023-09-17T01:35:03.516Z,14.39
2023-09-17T01:36:03.495Z,14.39
2023-09-17T01:37:03.478Z,14.20
2023-09-17T01:38:03.484Z,14.27
2023-09-17T01:39:03.457Z,14.34
2023-09-17T01:40:03.486Z,14.20
2023-09-17T01:41:03.440Z,14.26
2023-09-17T01:42:03.422Z,14.24
2023-09-17T01:43:03.429Z,14.30
2023-09-17T01:44:03.419Z,14.23
2023-09-17T01:45:03.394Z,14.19
2023-09-17T01:46:03.430Z,14.24
2023-09-17T01:47:03.369Z,14.29
2023-09-17T01:48:03.389Z,14.38
2023-09-17T01:49:03.355Z,14.35
2023-09-17T01:50:03.331Z,14.35
2023-09-17T01:51:03.339Z,14.38
2023-09-17T01:52:03.312Z,14.34
2023-09-17T01:53:03.306Z,14.31
2023-09-17T01:54:03.292Z,14.34
2023-09-17T01:55:03.279Z,14.31
2023-09-17T01:56:03.324Z,14.35
2023-09-17T01:57:03.253Z,14.38
2023-09-17T01:58:03.293Z,14.30
2023-09-17T01:59:03.259Z,14.35
2023-09-17T02:00:03.224Z,14.30
2023-09-17T02:01:03.246Z,14.31
2023-09-17T02:02:03.300Z,14.34
2023-09-17T02:03:03.258Z,14.31
2023-09-17T02:04:03.237Z,14.30
2023-09-17T02:05:03.170Z,14.34
2023-09-17T02:06:03.161Z,14.38
2023-09-17T02:07:03.169Z,14.29
2023-09-17T02:08:03.139Z,14.38
2023-09-17T02:09:03.127Z,14.41
2023-09-17T02:10:03.110Z,14.38
2023-09-17T02:11:03.122Z,14.29
2023-09-17T02:12:03.131Z,14.29
2023-09-17T02:13:03.090Z,14.26
2023-09-17T02:14:03.070Z,14.26
2023-09-17T02:15:03.054Z,14.34
2023-09-17T02:16:03.095Z,14.23
2023-09-17T02:17:03.033Z,14.27
2023-09-17T02:18:03.052Z,14.24
2023-09-17T02:19:03.018Z,14.23
2023-09-17T02:20:03.005Z,14.29
2023-09-17T02:21:02.983Z,14.26
2023-09-17T02:22:02.973Z,14.38
2023-09-17T02:23:02.963Z,14.30
2023-09-17T02:24:02.961Z,14.35
2023-09-17T02:25:03.010Z,14.35
2023-09-17T02:26:02.941Z,14.26
2023-09-17T02:27:02.917Z,14.30
2023-09-17T02:28:02.939Z,14.21
2023-09-17T02:29:02.897Z,14.31
2023-09-17T02:30:02.877Z,14.12
2023-09-17T02:31:02.915Z,14.29
2023-09-17T02:32:02.956Z,14.39
2023-09-17T02:33:02.918Z,14.29
2023-09-17T02:34:02.833Z,14.27
2023-09-17T02:35:02.875Z,14.20
2023-09-17T02:36:02.839Z,14.27
2023-09-17T02:37:02.817Z,14.29
2023-09-17T02:38:02.785Z,14.31
2023-09-17T02:39:02.785Z,14.36
2023-09-17T02:40:02.793Z,14.35
2023-09-17T02:41:02.754Z,14.29
2023-09-17T02:42:02.740Z,14.34
2023-09-17T02:43:02.744Z,14.38
2023-09-17T02:44:02.769Z,14.35
2023-09-17T02:45:02.748Z,14.38
2023-09-17T02:46:02.710Z,14.42
2023-09-17T02:47:02.769Z,14.31
2023-09-17T02:48:02.708Z,14.41
2023-09-17T02:49:02.682Z,14.41
2023-09-17T02:50:02.673Z,14.41
2023-09-17T02:51:02.649Z,14.53
2023-09-17T02:52:02.640Z,14.48
2023-09-17T02:53:02.644Z,14.31
2023-09-17T02:54:02.701Z,14.34
2023-09-17T02:55:02.605Z,14.35
2023-09-17T02:56:02.594Z,14.42
2023-09-17T02:57:02.604Z,14.39
2023-09-17T02:58:02.566Z,14.38
2023-09-17T02:59:02.557Z,14.29
2023-09-17T03:00:02.582Z,14.27
2023-09-17T03:01:02.567Z,14.31
2023-09-17T03:02:02.659Z,14.30
2023-09-17T03:03:02.664Z,14.30
2023-09-17T03:04:02.505Z,14.29
2023-09-17T03:05:02.530Z,14.34
2023-09-17T03:06:02.484Z,14.38
2023-09-17T03:07:02.482Z,14.29
2023-09-17T03:08:02.459Z,14.31
2023-09-17T03:09:02.448Z,14.34
2023-09-17T03:10:02.457Z,14.34
2023-09-17T03:11:02.443Z,14.30
2023-09-17T03:12:02.421Z,14.41
2023-09-17T03:13:02.407Z,14.42
2023-09-17T03:14:02.459Z,14.30
2023-09-17T03:15:02.382Z,14.35
2023-09-17T03:16:02.409Z,14.36
2023-09-17T03:17:02.522Z,14.24
2023-09-17T03:18:02.381Z,14.29
2023-09-17T03:19:02.354Z,14.31
2023-09-17T03:20:02.327Z,14.24
2023-09-17T03:21:02.322Z,14.27
2023-09-17T03:22:02.302Z,14.31
2023-09-17T03:23:02.309Z,14.30
2023-09-17T03:24:02.279Z,14.39
2023-09-17T03:25:04.735Z,14.30
2023-09-17T03:26:02.258Z,14.39
2023-09-17T03:27:02.246Z,14.30
2023-09-17T03:28:02.260Z,14.34
2023-09-17T03:29:02.266Z,14.44
2023-09-17T03:30:02.234Z,14.42
2023-09-17T03:31:02.277Z,14.56
2023-09-17T03:32:02.252Z,14.44
2023-09-17T03:33:05.465Z,14.46
2023-09-17T03:34:02.186Z,14.44
2023-09-17T03:35:02.209Z,14.49
2023-09-17T03:36:02.160Z,14.54
2023-09-17T03:37:02.133Z,14.45
2023-09-17T03:38:02.144Z,14.45
2023-09-17T03:39:02.141Z,14.56
2023-09-17T03:40:02.113Z,14.54
2023-09-17T03:41:02.086Z,14.45
2023-09-17T03:42:02.090Z,14.46
2023-09-17T03:43:02.080Z,14.52
2023-09-17T03:44:02.075Z,14.39
2023-09-17T03:45:02.074Z,14.45
2023-09-17T03:46:02.053Z,14.53
2023-09-17T03:47:02.112Z,14.44
2023-09-17T03:48:02.113Z,14.52
2023-09-17T03:49:02.013Z,14.53
2023-09-17T03:50:02.024Z,14.56
2023-09-17T03:51:01.998Z,14.54
2023-09-17T03:52:01.975Z,14.52
2023-09-17T03:53:01.960Z,14.53
2023-09-17T03:54:01.957Z,14.46
2023-09-17T03:55:01.928Z,14.46
2023-09-17T03:56:01.936Z,14.49
2023-09-17T03:57:01.921Z,14.56
2023-09-17T03:58:01.907Z,14.49
2023-09-17T03:59:01.935Z,14.57
2023-09-17T04:00:01.907Z,14.64
2023-09-17T04:01:01.887Z,14.46
2023-09-17T04:02:01.936Z,14.59
2023-09-17T04:03:01.884Z,14.57
2023-09-17T04:04:01.909Z,14.59
2023-09-17T04:05:01.859Z,14.49
2023-09-17T04:06:01.811Z,14.56
2023-09-17T04:07:01.818Z,14.67
2023-09-17T04:08:01.790Z,14.67
2023-09-17T04:09:01.789Z,14.59
2023-09-17T04:10:01.771Z,14.59
2023-09-17T04:11:01.764Z,14.53
2023-09-17T04:12:01.746Z,14.72
2023-09-17T04:13:01.733Z,14.59
2023-09-17T04:14:01.768Z,14.60
2023-09-17T04:15:01.706Z,14.72
2023-09-17T04:16:01.716Z,14.61
2023-09-17T04:17:01.785Z,14.57
2023-09-17T04:18:01.775Z,14.64
2023-09-17T04:19:01.663Z,14.63
2023-09-17T04:20:01.702Z,14.60
2023-09-17T04:21:01.655Z,14.57
2023-09-17T04:22:01.634Z,14.71
2023-09-17T04:23:01.622Z,14.56
2023-09-17T04:24:01.608Z,14.48
2023-09-17T04:25:01.598Z,14.71
2023-09-17T04:26:01.602Z,14.69
2023-09-17T04:27:01.574Z,14.60
2023-09-17T04:28:01.564Z,14.61
2023-09-17T04:29:01.560Z,14.66
2023-09-17T04:30:01.547Z,14.66
2023-09-17T04:31:01.526Z,14.69
2023-09-17T04:32:01.634Z,14.56
2023-09-17T04:33:01.574Z,14.57
2023-09-17T04:34:01.501Z,14.60
2023-09-17T04:35:01.494Z,14.63
2023-09-17T04:36:01.526Z,14.60
2023-09-17T04:37:01.465Z,14.56
2023-09-17T04:38:01.485Z,14.48
2023-09-17T04:39:01.462Z,14.52
2023-09-17T04:40:01.438Z,14.39
2023-09-17T04:41:01.479Z,14.45
2023-09-17T04:42:01.416Z,14.29
2023-09-17T04:43:01.415Z,14.29
2023-09-17T04:44:01.417Z,14.34
2023-09-17T04:45:01.387Z,14.29
2023-09-17T04:46:01.420Z,14.29
2023-09-17T04:47:02.483Z,14.21
2023-09-17T04:48:01.421Z,14.27
2023-09-17T04:49:01.340Z,14.31
2023-09-17T04:50:01.366Z,14.35
2023-09-17T04:51:01.317Z,14.34
2023-09-17T04:52:01.373Z,14.35
2023-09-17T04:53:01.290Z,14.31
2023-09-17T04:54:01.300Z,14.26
2023-09-17T04:55:01.270Z,14.26
2023-09-17T04:56:01.258Z,14.36
2023-09-17T04:57:01.248Z,14.27
2023-09-17T04:58:01.246Z,14.21
2023-09-17T04:59:01.229Z,14.38
2023-09-17T05:00:01.233Z,14.26
2023-09-17T05:01:01.202Z,14.23
2023-09-17T05:02:01.293Z,14.19
2023-09-17T05:03:01.258Z,14.29
2023-09-17T05:04:01.283Z,14.24
2023-09-17T05:05:01.178Z,14.17
2023-09-17T05:06:01.155Z,14.17
2023-09-17T05:07:01.143Z,14.16
2023-09-17T05:08:01.161Z,14.16
2023-09-17T05:09:01.126Z,14.08
2023-09-17T05:10:01.112Z,14.01
2023-09-17T05:11:01.136Z,13.90
2023-09-17T05:12:01.116Z,13.88
2023-09-17T05:13:01.083Z,13.96
2023-09-17T05:14:01.080Z,14.02
2023-09-17T05:15:01.070Z,13.91
2023-09-17T05:16:01.070Z,13.98
2023-09-17T05:17:01.136Z,13.96
2023-09-17T05:18:01.048Z,14.05
2023-09-17T05:19:01.019Z,14.05
2023-09-17T05:20:01.045Z,14.04
2023-09-17T05:21:00.988Z,14.04
2023-09-17T05:22:00.979Z,13.96
2023-09-17T05:23:01.045Z,14.13
2023-09-17T05:24:01.024Z,14.01
2023-09-17T05:25:00.946Z,14.05
2023-09-17T05:26:00.962Z,14.09
2023-09-17T05:27:00.912Z,14.13
2023-09-17T05:28:00.910Z,14.12
2023-09-17T05:29:01.010Z,14.13
2023-09-17T05:30:00.907Z,14.16
2023-09-17T05:31:00.868Z,14.24
2023-09-17T05:32:00.941Z,14.24
2023-09-17T05:33:00.863Z,14.21
2023-09-17T05:34:00.833Z,14.34
2023-09-17T05:35:00.860Z,14.21
2023-09-17T05:36:00.826Z,14.27
2023-09-17T05:37:00.817Z,14.26
2023-09-17T05:38:00.836Z,14.31
2023-09-17T05:39:03.106Z,14.30
2023-09-17T05:40:00.805Z,14.31
2023-09-17T05:41:00.784Z,14.30
2023-09-17T05:42:00.750Z,14.39
2023-09-17T05:43:00.745Z,14.39
2023-09-17T05:44:00.780Z,14.39
2023-09-17T05:45:00.729Z,14.49
2023-09-17T05:46:00.793Z,14.46
2023-09-17T05:47:00.751Z,14.60
2023-09-17T05:48:00.733Z,14.46
2023-09-17T05:49:00.688Z,14.66
2023-09-17T05:50:00.894Z,14.71
2023-09-17T05:51:00.663Z,14.69
2023-09-17T05:52:00.648Z,14.71
2023-09-17T05:53:00.689Z,14.69
2023-09-17T05:54:00.629Z,14.72
2023-09-17T05:55:00.618Z,14.74
2023-09-17T05:56:00.679Z,14.72
2023-09-17T05:57:00.583Z,14.80
2023-09-17T05:58:00.576Z,14.82
2023-09-17T05:59:00.618Z,14.85
2023-09-17T06:00:00.547Z,14.75
2023-09-17T06:01:00.556Z,14.83
2023-09-17T06:02:00.667Z,14.82
2023-09-17T06:03:00.645Z,14.86
2023-09-17T06:04:00.541Z,14.85
2023-09-17T06:05:01.332Z,14.83
2023-09-17T06:06:00.504Z,14.94
2023-09-17T06:07:00.472Z,14.82
2023-09-17T06:08:00.506Z,14.93
2023-09-17T06:09:00.458Z,15.04
2023-09-17T06:10:00.435Z,15.03
2023-09-17T06:11:00.463Z,15.11
2023-09-17T06:12:00.458Z,15.15
2023-09-17T06:13:00.404Z,15.33
2023-09-17T06:14:00.398Z,15.56
2023-09-17T06:15:00.384Z,15.66
2023-09-17T06:16:00.453Z,15.80
2023-09-17T06:17:00.386Z,15.74
2023-09-17T06:18:00.361Z,15.86
2023-09-17T06:19:00.339Z,15.96
2023-09-17T06:20:00.440Z,16.11
2023-09-17T06:21:00.334Z,16.30
2023-09-17T06:22:00.307Z,16.32
2023-09-17T06:23:00.371Z,16.33
2023-09-17T06:24:00.290Z,16.29
2023-09-17T06:25:00.268Z,16.17
2023-09-17T06:26:00.313Z,16.40
2023-09-17T06:27:00.261Z,16.22
2023-09-17T06:28:00.310Z,16.13
2023-09-17T06:29:00.253Z,15.89
2023-09-17T06:30:00.258Z,16.01
2023-09-17T06:31:00.311Z,16.30
2023-09-17T06:32:00.281Z,16.55
2023-09-17T06:33:00.239Z,16.60
2023-09-17T06:34:00.187Z,16.77
2023-09-17T06:35:00.237Z,16.88
2023-09-17T06:36:00.179Z,17.15
2023-09-17T06:37:00.139Z,17.18
2023-09-17T06:38:00.179Z,17.20
2023-09-17T06:39:00.113Z,17.10
2023-09-17T06:40:00.191Z,17.28
2023-09-17T06:41:00.181Z,17.28
2023-09-17T06:42:00.082Z,17.39
2023-09-17T06:43:00.067Z,17.38
2023-09-17T06:44:00.217Z,17.25
2023-09-17T06:45:00.046Z,17.30
2023-09-17T06:46:00.054Z,17.07
2023-09-17T06:47:00.118Z,16.95
2023-09-17T06:48:00.058Z,16.77
2023-09-17T06:49:00.009Z,16.67
2023-09-17T06:50:00.020Z,16.70
2023-09-17T06:50:59.984Z,16.54
2023-09-17T06:52:00.007Z,16.57
2023-09-17T06:52:59.996Z,16.54
2023-09-17T06:53:59.945Z,16.54
2023-09-17T06:54:59.931Z,16.75
2023-09-17T06:55:59.957Z,16.65
2023-09-17T06:56:59.921Z,16.44
2023-09-17T06:57:59.901Z,16.40
2023-09-17T06:58:59.941Z,16.29
2023-09-17T07:00:00.060Z,16.27
2023-09-17T07:00:59.900Z,16.27
2023-09-17T07:01:59.916Z,16.48
2023-09-17T07:02:59.881Z,16.90
2023-09-17T07:03:59.889Z,17.17
2023-09-17T07:04:59.899Z,16.85
2023-09-17T07:05:59.806Z,17.07
2023-09-17T07:06:59.808Z,17.40
2023-09-17T07:07:59.895Z,17.62
2023-09-17T07:08:59.780Z,17.73
2023-09-17T07:09:59.772Z,17.84
2023-09-17T07:10:59.780Z,17.63
2023-09-17T07:11:59.757Z,17.89
2023-09-17T07:12:59.741Z,17.98
2023-09-17T07:14:00.711Z,17.99
2023-09-17T07:14:59.729Z,18.21
2023-09-17T07:15:59.757Z,18.50
2023-09-17T07:16:59.749Z,18.72
2023-09-17T07:17:59.707Z,18.93
2023-09-17T07:18:59.670Z,18.83
2023-09-17T07:19:59.708Z,18.76
2023-09-17T07:20:59.663Z,18.82
2023-09-17T07:21:59.652Z,18.84
2023-09-17T07:22:59.699Z,18.78
2023-09-17T07:23:59.625Z,18.76
2023-09-17T07:24:59.609Z,18.50
2023-09-17T07:25:59.649Z,18.50
2023-09-17T07:26:59.600Z,18.56
2023-09-17T07:27:59.585Z,18.94
2023-09-17T07:28:59.612Z,19.06
2023-09-17T07:29:59.546Z,19.17
2023-09-17T07:30:59.564Z,19.13
2023-09-17T07:31:59.579Z,19.10
2023-09-17T07:32:59.578Z,19.25
2023-09-17T07:33:59.522Z,19.30
2023-09-17T07:34:59.517Z,19.23
2023-09-17T07:35:59.513Z,19.27
2023-09-17T07:36:59.477Z,19.35
2023-09-17T07:37:59.499Z,19.75
2023-09-17T07:38:59.449Z,19.79
2023-09-17T07:39:59.436Z,19.52
2023-09-17T07:40:59.500Z,19.58
2023-09-17T07:41:59.419Z,19.61
2023-09-17T07:42:59.414Z,19.61
2023-09-17T07:43:59.441Z,19.97
2023-09-17T07:44:59.382Z,20.08
2023-09-17T07:45:59.416Z,20.22
2023-09-17T07:46:59.484Z,20.44
2023-09-17T07:47:59.466Z,20.48
2023-09-17T07:48:59.353Z,20.37
2023-09-17T07:49:59.395Z,20.48
2023-09-17T07:50:59.321Z,20.53
2023-09-17T07:51:59.310Z,20.53
2023-09-17T07:52:59.341Z,20.51
2023-09-17T07:53:59.300Z,20.57
2023-09-17T07:54:59.285Z,20.46
2023-09-17T07:55:59.338Z,20.33
2023-09-17T07:56:59.254Z,20.26
2023-09-17T07:57:59.246Z,20.30
2023-09-17T07:58:59.241Z,20.34
2023-09-17T07:59:59.329Z,20.19
2023-09-17T08:00:59.222Z,20.19
2023-09-17T08:01:59.323Z,20.23
2023-09-17T08:02:59.416Z,20.19
2023-09-17T08:03:59.266Z,20.34
2023-09-17T08:04:59.211Z,20.50
2023-09-17T08:05:59.185Z,20.72
2023-09-17T08:06:59.147Z,20.81
2023-09-17T08:07:59.189Z,21.06
2023-09-17T08:08:59.149Z,21.18
2023-09-17T08:09:59.615Z,21.30
2023-09-17T08:10:59.188Z,21.05
2023-09-17T08:11:59.089Z,20.85
2023-09-17T08:12:59.095Z,20.93
2023-09-17T08:13:59.162Z,20.91
2023-09-17T08:14:59.089Z,21.09
2023-09-17T08:15:59.053Z,20.93
2023-09-17T08:16:59.138Z,20.88
2023-09-17T08:17:59.082Z,20.94
2023-09-17T08:18:59.022Z,21.18
2023-09-17T08:19:59.079Z,21.18
2023-09-17T08:20:58.990Z,20.56
2023-09-17T08:21:58.986Z,20.48
2023-09-17T08:22:59.001Z,20.42
2023-09-17T08:23:58.966Z,20.37
2023-09-17T08:24:58.952Z,20.25
2023-09-17T08:25:59.009Z,20.10
2023-09-17T08:26:58.930Z,19.83
2023-09-17T08:27:58.918Z,19.98
2023-09-17T08:28:58.947Z,19.90
2023-09-17T08:29:58.895Z,20.26
2023-09-17T08:30:58.962Z,20.48
2023-09-17T08:31:58.926Z,20.46
2023-09-17T08:32:58.927Z,20.58
2023-09-17T08:33:58.842Z,20.91
2023-09-17T08:34:58.871Z,21.21
2023-09-17T08:35:58.866Z,20.85
2023-09-17T08:36:58.824Z,20.71
2023-09-17T08:37:58.842Z,21.19
2023-09-17T08:38:58.823Z,21.36
2023-09-17T08:39:58.778Z,21.31
2023-09-17T08:40:58.808Z,20.91
2023-09-17T08:41:58.773Z,20.81
2023-09-17T08:42:58.751Z,20.96
2023-09-17T08:43:58.748Z,21.08
2023-09-17T08:44:58.724Z,20.91
2023-09-17T08:45:58.768Z,20.58
2023-09-17T08:46:58.728Z,20.26
2023-09-17T08:47:58.737Z,20.34
2023-09-17T08:48:58.688Z,20.22
2023-09-17T08:49:58.720Z,19.97
2023-09-17T08:50:58.664Z,19.79
2023-09-17T08:51:58.686Z,19.89
2023-09-17T08:52:58.670Z,20.05
2023-09-17T08:53:58.643Z,20.22
2023-09-17T08:54:58.614Z,20.19
2023-09-17T08:55:58.724Z,20.23
2023-09-17T08:56:58.596Z,20.27
2023-09-17T08:57:58.612Z,20.68
2023-09-17T08:58:58.589Z,20.96
2023-09-17T08:59:58.577Z,20.90
2023-09-17T09:00:58.548Z,20.82
2023-09-17T09:01:58.619Z,21.21
2023-09-17T09:02:58.638Z,21.24
2023-09-17T09:03:58.616Z,21.28
2023-09-17T09:04:58.585Z,21.61
2023-09-17T09:05:58.526Z,22.06
2023-09-17T09:06:58.484Z,22.19
2023-09-17T09:07:58.552Z,21.86
2023-09-17T09:08:58.482Z,21.45
2023-09-17T09:09:58.454Z,21.30
2023-09-17T09:10:59.588Z,21.24
2023-09-17T09:11:58.449Z,21.30
2023-09-17T09:12:58.425Z,21.58
2023-09-17T09:13:58.473Z,21.36
2023-09-17T09:14:58.399Z,21.18
2023-09-17T09:15:58.389Z,21.05
2023-09-17T09:16:58.422Z,21.34
2023-09-17T09:17:58.385Z,21.81
2023-09-17T09:18:58.353Z,21.83
2023-09-17T09:19:58.380Z,22.06
2023-09-17T09:20:58.362Z,22.14
2023-09-17T09:21:58.344Z,22.12
2023-09-17T09:22:58.327Z,21.91
2023-09-17T09:23:58.335Z,21.85
2023-09-17T09:24:58.283Z,21.53
2023-09-17T09:25:58.392Z,21.31
2023-09-17T09:26:58.269Z,21.38
2023-09-17T09:27:58.250Z,21.38
2023-09-17T09:28:58.323Z,21.48
2023-09-17T09:29:58.230Z,21.40
2023-09-17T09:30:58.216Z,21.59
2023-09-17T09:31:58.337Z,21.91
2023-09-17T09:32:58.273Z,21.91
2023-09-17T09:33:58.210Z,21.89
2023-09-17T09:34:58.232Z,21.94
2023-09-17T09:35:58.160Z,21.67
2023-09-17T09:36:58.144Z,21.91
2023-09-17T09:37:58.209Z,21.67
2023-09-17T09:38:58.124Z,21.96
2023-09-17T09:39:58.160Z,21.82
2023-09-17T09:40:58.129Z,21.82
2023-09-17T09:41:58.095Z,21.99
2023-09-17T09:42:58.113Z,21.53
2023-09-17T09:43:58.295Z,21.36
2023-09-17T09:44:58.069Z,21.40
2023-09-17T09:45:58.144Z,21.45
2023-09-17T09:46:58.065Z,21.67
2023-09-17T09:47:58.122Z,21.68
2023-09-17T09:48:58.028Z,22.27
2023-09-17T09:49:58.009Z,22.29
2023-09-17T09:50:57.998Z,22.36
2023-09-17T09:51:57.985Z,22.56
2023-09-17T09:52:58.001Z,22.41
2023-09-17T09:53:57.982Z,22.35
2023-09-17T09:54:57.952Z,22.60
2023-09-17T09:55:58.002Z,22.23
2023-09-17T09:56:57.935Z,21.99
2023-09-17T09:57:57.957Z,21.86
2023-09-17T09:58:57.953Z,22.05
2023-09-17T09:59:57.920Z,22.09
2023-09-17T10:00:57.893Z,21.96
2023-09-17T10:01:57.903Z,21.91
2023-09-17T10:02:57.977Z,21.56
2023-09-17T10:03:57.967Z,21.52
2023-09-17T10:04:57.932Z,21.56
2023-09-17T10:05:57.846Z,21.71
2023-09-17T10:06:57.816Z,22.01
2023-09-17T10:07:57.837Z,22.09
2023-09-17T10:08:57.818Z,22.45
2023-09-17T10:09:57.803Z,22.39
2023-09-17T10:10:57.815Z,22.44
2023-09-17T10:11:57.807Z,22.35
2023-09-17T10:12:57.754Z,22.36
2023-09-17T10:13:57.758Z,22.15
2023-09-17T10:14:57.751Z,22.31
2023-09-17T10:15:57.748Z,22.21
2023-09-17T10:16:57.738Z,22.12
2023-09-17T10:17:57.707Z,21.91
2023-09-17T10:18:57.706Z,21.73
2023-09-17T10:19:57.701Z,21.75
2023-09-17T10:20:57.674Z,21.77
2023-09-17T10:21:57.686Z,21.68
2023-09-17T10:22:57.686Z,21.70
2023-09-17T10:23:57.638Z,21.93
2023-09-17T10:24:57.626Z,22.09
2023-09-17T10:25:57.641Z,22.30
2023-09-17T10:26:57.625Z,22.42
2023-09-17T10:27:57.627Z,22.42
2023-09-17T10:28:57.637Z,21.96
2023-09-17T10:29:57.585Z,21.86
2023-09-17T10:30:57.586Z,22.06
2023-09-17T10:31:57.674Z,22.27
2023-09-17T10:32:57.570Z,22.42
2023-09-17T10:33:57.532Z,22.64
2023-09-17T10:34:57.521Z,22.86
2023-09-17T10:35:57.603Z,22.93
2023-09-17T10:36:57.487Z,22.81
2023-09-17T10:37:57.560Z,22.48
2023-09-17T10:38:57.503Z,22.09
2023-09-17T10:39:57.455Z,22.09
2023-09-17T10:40:57.661Z,22.21
2023-09-17T10:41:57.441Z,22.46
2023-09-17T10:42:57.467Z,22.89
2023-09-17T10:43:57.499Z,23.01
2023-09-17T10:44:57.417Z,23.07
2023-09-17T10:45:57.405Z,23.07
2023-09-17T10:46:57.496Z,23.18
2023-09-17T10:47:57.404Z,22.97
2023-09-17T10:48:57.360Z,23.21
2023-09-17T10:49:57.474Z,23.31
2023-09-17T10:50:57.343Z,23.25
2023-09-17T10:51:57.330Z,22.74
2023-09-17T10:52:57.352Z,22.89
2023-09-17T10:53:57.309Z,23.32
2023-09-17T10:54:57.344Z,23.34
2023-09-17T10:55:57.452Z,22.96
2023-09-17T10:56:57.317Z,23.14
2023-09-17T10:57:57.345Z,23.19
2023-09-17T10:58:57.381Z,23.07
2023-09-17T10:59:57.311Z,23.09
2023-09-17T11:00:57.324Z,23.56
2023-09-17T11:01:57.327Z,23.37
2023-09-17T11:02:57.349Z,22.91
2023-09-17T11:03:57.294Z,22.60
2023-09-17T11:04:57.239Z,22.49
2023-09-17T11:05:57.178Z,22.46
2023-09-17T11:06:57.180Z,22.63
2023-09-17T11:07:57.185Z,22.60
2023-09-17T11:08:57.148Z,22.41
2023-09-17T11:09:57.146Z,22.60
2023-09-17T11:10:57.151Z,22.56
2023-09-17T11:11:57.128Z,22.52
2023-09-17T11:12:57.111Z,22.24
2023-09-17T11:13:57.133Z,22.20
2023-09-17T11:14:57.094Z,22.51
2023-09-17T11:15:57.179Z,22.48
2023-09-17T11:16:57.177Z,22.70
2023-09-17T11:17:57.209Z,23.00
2023-09-17T11:18:57.038Z,22.88
2023-09-17T11:19:57.072Z,23.09
2023-09-17T11:20:57.019Z,23.38
2023-09-17T11:21:57.009Z,23.53
2023-09-17T11:22:57.038Z,23.78
2023-09-17T11:23:57.002Z,23.75
2023-09-17T11:24:56.977Z,24.02
2023-09-17T11:25:57.017Z,24.24
2023-09-17T11:26:56.962Z,24.18
2023-09-17T11:27:56.970Z,23.86
2023-09-17T11:28:57.022Z,23.99
2023-09-17T11:29:56.939Z,24.31
2023-09-17T11:30:56.943Z,24.18
2023-09-17T11:31:57.039Z,24.23
2023-09-17T11:32:56.952Z,24.06
2023-09-17T11:33:56.890Z,23.75
2023-09-17T11:34:56.923Z,23.77
2023-09-17T11:35:56.881Z,24.08
2023-09-17T11:36:56.862Z,24.05
2023-09-17T11:37:56.888Z,23.87
2023-09-17T11:38:56.866Z,23.69
2023-09-17T11:39:56.822Z,23.79
2023-09-17T11:40:56.868Z,24.19
2023-09-17T11:41:56.824Z,24.06
2023-09-17T11:42:56.796Z,24.09
2023-09-17T11:43:56.833Z,24.23
2023-09-17T11:44:56.803Z,24.16
2023-09-17T11:45:56.833Z,24.00
2023-09-17T11:46:56.764Z,23.64
2023-09-17T11:47:56.863Z,23.53
2023-09-17T11:48:56.731Z,23.60
2023-09-17T11:49:56.794Z,23.62
2023-09-17T11:50:56.704Z,23.79
2023-09-17T11:51:56.698Z,23.59
2023-09-17T11:52:56.688Z,23.31
2023-09-17T11:53:56.659Z,22.84
2023-09-17T11:54:56.660Z,23.06
2023-09-17T11:55:56.711Z,23.19
2023-09-17T11:56:56.646Z,23.00
2023-09-17T11:57:56.611Z,23.01
2023-09-17T11:58:56.687Z,22.91
2023-09-17T11:59:56.614Z,23.16
2023-09-17T12:00:56.580Z,23.03
2023-09-17T12:01:56.675Z,23.03
2023-09-17T12:02:56.616Z,22.94
2023-09-17T12:03:56.706Z,22.91
2023-09-17T12:04:56.583Z,22.97
2023-09-17T12:05:56.526Z,23.09
2023-09-17T12:06:56.535Z,23.18
2023-09-17T12:07:56.524Z,23.37
2023-09-17T12:08:56.487Z,23.47
2023-09-17T12:09:56.501Z,23.59
2023-09-17T12:10:56.541Z,23.38
2023-09-17T12:11:56.485Z,23.45
2023-09-17T12:12:56.441Z,23.52
2023-09-17T12:13:56.558Z,23.53
2023-09-17T12:14:56.426Z,23.52
2023-09-17T12:15:56.412Z,23.57
2023-09-17T12:16:56.449Z,23.57
2023-09-17T12:17:56.432Z,23.68
2023-09-17T12:19:07.551Z,23.62
2023-09-17T12:19:57.442Z,23.67
2023-09-17T12:20:56.351Z,23.62
2023-09-17T12:21:56.369Z,23.79
2023-09-17T12:22:56.366Z,23.69
2023-09-17T12:23:56.357Z,23.56
2023-09-17T12:24:56.310Z,23.37
2023-09-17T12:25:56.325Z,23.31
2023-09-17T12:26:56.290Z,23.15
2023-09-17T12:27:56.272Z,22.99
2023-09-17T12:28:56.299Z,22.79
2023-09-17T12:29:56.257Z,22.88
2023-09-17T12:30:56.267Z,23.07
2023-09-17T12:31:56.288Z,23.04
2023-09-17T12:32:56.267Z,23.09
2023-09-17T12:33:56.204Z,23.07
2023-09-17T12:34:56.269Z,22.96
2023-09-17T12:35:56.223Z,22.94
2023-09-17T12:36:56.170Z,22.94
2023-09-17T12:37:56.227Z,23.03
2023-09-17T12:38:56.146Z,23.15
2023-09-17T12:39:56.158Z,22.93
2023-09-17T12:40:56.183Z,22.84
2023-09-17T12:41:56.163Z,23.01
2023-09-17T12:42:56.126Z,22.96
2023-09-17T12:43:56.132Z,23.07
2023-09-17T12:44:56.107Z,23.06
2023-09-17T12:45:56.095Z,23.03
2023-09-17T12:46:56.156Z,23.15
2023-09-17T12:47:56.090Z,23.26
2023-09-17T12:48:56.046Z,23.35
2023-09-17T12:49:56.554Z,23.45
2023-09-17T12:50:56.030Z,23.64
2023-09-17T12:51:56.050Z,23.60